createdAt,value
2022-12-18T00:00:12.523Z,102800.41
2022-12-18T00:00:25.494Z,102805.66
2022-12-18T00:00:59.080Z,102805.66
2022-12-18T00:01:32.384Z,102810.91
2022-12-18T00:01:46.348Z,102805.66
2022-12-18T00:01:59.933Z,102810.91
2022-12-18T00:02:13.099Z,102811.78
2022-12-18T00:02:25.697Z,102813.53
2022-12-18T00:02:39.470Z,102814.41
2022-12-18T00:02:53.117Z,102814.41
2022-12-18T00:03:06.025Z,102814.41
2022-12-18T00:03:18.860Z,102814.41
2022-12-18T00:03:32.751Z,102811.75
2022-12-18T00:03:46.686Z,102819.63
2022-12-18T00:03:59.978Z,102817.00
2022-12-18T00:04:21.032Z,102810.88
2022-12-18T00:04:33.821Z,102817.91
2022-12-18T00:04:46.404Z,102813.50
2022-12-18T00:04:59.866Z,102814.41
2022-12-18T00:05:12.385Z,102812.63
2022-12-18T00:05:25.238Z,102809.13
2022-12-18T00:05:37.818Z,102808.28
2022-12-18T00:05:52.010Z,102809.13
2022-12-18T00:06:04.654Z,102809.13
2022-12-18T00:06:18.082Z,102811.78
2022-12-18T00:06:31.277Z,102811.75
2022-12-18T00:06:44.113Z,102806.50
2022-12-18T00:06:57.189Z,102821.38
2022-12-18T00:07:10.837Z,102817.88
2022-12-18T00:07:23.386Z,102812.63
2022-12-18T00:07:36.797Z,102811.75
2022-12-18T00:07:49.365Z,102808.22
2022-12-18T00:08:02.063Z,102818.72
2022-12-18T00:08:15.014Z,102813.47
2022-12-18T00:08:28.608Z,102810.84
2022-12-18T00:08:41.225Z,102816.97
2022-12-18T00:08:54.492Z,102813.47
2022-12-18T00:09:07.034Z,102818.72
2022-12-18T00:09:20.350Z,102816.97
2022-12-18T00:09:40.062Z,102810.84
2022-12-18T00:09:53.166Z,102815.25
2022-12-18T00:10:08.047Z,102816.09
2022-12-18T00:10:20.680Z,102817.88
2022-12-18T00:10:33.225Z,102816.09
2022-12-18T00:10:46.610Z,102816.09
2022-12-18T00:11:07.107Z,102823.13
2022-12-18T00:11:21.784Z,102818.72
2022-12-18T00:11:34.355Z,102824.84
2022-12-18T00:11:47.132Z,102818.72
2022-12-18T00:12:29.992Z,102822.22
2022-12-18T00:12:42.963Z,102817.88
2022-12-18T00:12:55.626Z,102819.59
2022-12-18T00:13:10.089Z,102816.97
2022-12-18T00:13:23.073Z,102823.13
2022-12-18T00:13:37.585Z,102824.84
2022-12-18T00:13:51.247Z,102823.13
2022-12-18T00:14:03.962Z,102817.88
2022-12-18T00:14:16.734Z,102821.34
2022-12-18T00:14:29.284Z,102823.97
2022-12-18T00:14:41.866Z,102823.97
2022-12-18T00:14:56.777Z,102816.97
2022-12-18T00:15:10.050Z,102821.31
2022-12-18T00:15:22.645Z,102824.84
2022-12-18T00:15:35.889Z,102824.84
2022-12-18T00:15:48.470Z,102829.22
2022-12-18T00:16:03.223Z,102827.47
2022-12-18T00:16:19.549Z,102823.94
2022-12-18T00:16:34.058Z,102822.22
2022-12-18T00:16:47.802Z,102825.72
2022-12-18T00:17:01.704Z,102820.47
2022-12-18T00:17:14.283Z,102826.59
2022-12-18T00:17:26.855Z,102826.59
2022-12-18T00:17:40.362Z,102819.59
2022-12-18T00:17:52.973Z,102830.97
2022-12-18T00:18:05.884Z,102835.34
2022-12-18T00:18:20.675Z,102828.34
2022-12-18T00:18:33.869Z,102827.47
2022-12-18T00:18:46.748Z,102823.06
2022-12-18T00:19:02.565Z,102830.06
2022-12-18T00:19:16.856Z,102823.09
2022-12-18T00:19:29.488Z,102830.94
2022-12-18T00:19:42.330Z,102827.44
2022-12-18T00:19:54.909Z,102828.34
2022-12-18T00:20:09.036Z,102828.34
2022-12-18T00:20:26.497Z,102831.81
2022-12-18T00:20:41.722Z,102830.94
2022-12-18T00:20:54.427Z,102832.69
2022-12-18T00:21:09.314Z,102829.19
2022-12-18T00:21:22.934Z,102830.94
2022-12-18T00:21:35.764Z,102830.94
2022-12-18T00:21:48.303Z,102834.44
2022-12-18T00:22:01.880Z,102830.06
2022-12-18T00:22:14.441Z,102837.06
2022-12-18T00:22:27.050Z,102828.31
2022-12-18T00:22:39.689Z,102827.44
2022-12-18T00:22:52.518Z,102832.69
2022-12-18T00:23:05.623Z,102830.91
2022-12-18T00:23:18.431Z,102832.69
2022-12-18T00:23:32.428Z,102833.53
2022-12-18T00:23:48.543Z,102836.19
2022-12-18T00:24:01.851Z,102829.16
2022-12-18T00:24:14.446Z,102835.28
2022-12-18T00:24:27.433Z,102836.19
2022-12-18T00:24:40.336Z,102837.06
2022-12-18T00:24:52.956Z,102834.44
2022-12-18T00:25:07.121Z,102829.16
2022-12-18T00:25:19.915Z,102840.53
2022-12-18T00:25:33.782Z,102838.81
2022-12-18T00:25:46.331Z,102837.06
2022-12-18T00:26:00.529Z,102832.66
2022-12-18T00:26:18.017Z,102835.28
2022-12-18T00:26:32.672Z,102840.53
2022-12-18T00:26:46.232Z,102841.41
2022-12-18T00:26:58.810Z,102834.41
2022-12-18T00:27:11.358Z,102843.16
2022-12-18T00:27:23.968Z,102840.53
2022-12-18T00:27:36.591Z,102837.91
2022-12-18T00:27:49.283Z,102835.28
2022-12-18T00:28:01.920Z,102840.53
2022-12-18T00:28:14.517Z,102845.78
2022-12-18T00:28:27.443Z,102840.53
2022-12-18T00:28:41.051Z,102837.03
2022-12-18T00:28:54.389Z,102841.41
2022-12-18T00:29:09.243Z,102844.91
2022-12-18T00:29:21.821Z,102838.75
2022-12-18T00:29:34.568Z,102840.53
2022-12-18T00:29:48.182Z,102843.16
2022-12-18T00:30:02.148Z,102847.50
2022-12-18T00:30:15.000Z,102837.91
2022-12-18T00:30:27.987Z,102848.41
2022-12-18T00:30:40.584Z,102842.28
2022-12-18T00:31:01.451Z,102847.53
2022-12-18T00:31:15.615Z,102846.63
2022-12-18T00:31:28.573Z,102844.88
2022-12-18T00:31:43.923Z,102841.41
2022-12-18T00:31:56.607Z,102847.50
2022-12-18T00:32:09.218Z,102840.53
2022-12-18T00:32:21.852Z,102844.88
2022-12-18T00:32:34.716Z,102850.13
2022-12-18T00:32:47.315Z,102850.13
2022-12-18T00:32:59.955Z,102851.88
2022-12-18T00:33:13.594Z,102853.63
2022-12-18T00:33:26.198Z,102853.66
2022-12-18T00:33:40.183Z,102843.16
2022-12-18T00:33:55.375Z,102851.03
2022-12-18T00:34:10.783Z,102848.41
2022-12-18T00:34:23.353Z,102850.16
2022-12-18T00:34:37.100Z,102839.66
2022-12-18T00:34:49.724Z,102842.25
2022-12-18T00:35:02.321Z,102855.38
2022-12-18T00:35:14.964Z,102849.25
2022-12-18T00:35:27.568Z,102852.75
2022-12-18T00:35:40.170Z,102846.59
2022-12-18T00:35:52.754Z,102851.84
2022-12-18T00:36:08.409Z,102849.25
2022-12-18T00:36:23.336Z,102851.88
2022-12-18T00:36:36.148Z,102850.09
2022-12-18T00:36:49.728Z,102850.13
2022-12-18T00:37:02.330Z,102852.72
2022-12-18T00:37:19.894Z,102857.13
2022-12-18T00:37:35.433Z,102853.59
2022-12-18T00:37:48.188Z,102854.50
2022-12-18T00:38:00.766Z,102853.59
2022-12-18T00:38:14.332Z,102858.00
2022-12-18T00:38:26.928Z,102853.59
2022-12-18T00:38:40.224Z,102856.22
2022-12-18T00:38:55.231Z,102860.63
2022-12-18T00:39:09.201Z,102852.75
2022-12-18T00:39:22.046Z,102860.63
2022-12-18T00:39:34.774Z,102864.13
2022-12-18T00:39:49.598Z,102865.00
2022-12-18T00:40:02.292Z,102857.13
2022-12-18T00:40:14.906Z,102862.38
2022-12-18T00:40:28.534Z,102858.88
2022-12-18T00:40:41.117Z,102865.00
2022-12-18T00:40:53.705Z,102865.00
2022-12-18T00:41:07.189Z,102862.38
2022-12-18T00:41:34.973Z,102858.88
2022-12-18T00:42:06.086Z,102858.84
2022-12-18T00:42:37.069Z,102859.75
2022-12-18T00:42:58.626Z,102858.84
2022-12-18T00:43:11.341Z,102857.97
2022-12-18T00:43:24.187Z,102856.22
2022-12-18T00:43:37.975Z,102862.34
2022-12-18T00:43:50.772Z,102860.56
2022-12-18T00:44:03.854Z,102857.97
2022-12-18T00:44:19.214Z,102857.09
2022-12-18T00:44:31.831Z,102857.97
2022-12-18T00:44:45.390Z,102865.84
2022-12-18T00:44:57.976Z,102857.97
2022-12-18T00:45:13.182Z,102859.75
2022-12-18T00:45:27.746Z,102857.13
2022-12-18T00:45:40.394Z,102855.34
2022-12-18T00:45:54.058Z,102857.09
2022-12-18T00:46:07.487Z,102863.22
2022-12-18T00:46:21.192Z,102857.09
2022-12-18T00:46:34.315Z,102854.47
2022-12-18T00:46:48.322Z,102854.47
2022-12-18T00:47:00.923Z,102853.59
2022-12-18T00:47:13.603Z,102845.75
2022-12-18T00:47:26.181Z,102859.72
2022-12-18T00:47:38.830Z,102857.09
2022-12-18T00:47:51.493Z,102858.84
2022-12-18T00:48:05.552Z,102856.22
2022-12-18T00:48:18.155Z,102860.59
2022-12-18T00:48:30.812Z,102857.09
2022-12-18T00:48:43.837Z,102861.47
2022-12-18T00:48:56.531Z,102859.75
2022-12-18T00:49:09.323Z,102863.22
2022-12-18T00:49:22.090Z,102861.47
2022-12-18T00:49:35.648Z,102859.75
2022-12-18T00:49:48.230Z,102861.47
2022-12-18T00:50:01.307Z,102860.63
2022-12-18T00:50:13.924Z,102861.47
2022-12-18T00:50:27.193Z,102863.25
2022-12-18T00:50:39.800Z,102869.38
2022-12-18T00:50:52.916Z,102865.88
2022-12-18T00:51:05.760Z,102863.25
2022-12-18T00:51:19.307Z,102861.50
2022-12-18T00:51:32.048Z,102869.38
2022-12-18T00:51:45.032Z,102865.84
2022-12-18T00:51:57.676Z,102862.38
2022-12-18T00:52:10.758Z,102872.88
2022-12-18T00:52:23.518Z,102863.25
2022-12-18T00:52:37.272Z,102865.84
2022-12-18T00:52:49.952Z,102866.75
2022-12-18T00:53:02.538Z,102872.00
2022-12-18T00:53:15.145Z,102865.00
2022-12-18T00:53:27.801Z,102865.88
2022-12-18T00:53:40.774Z,102868.50
2022-12-18T00:53:54.026Z,102872.84
2022-12-18T00:54:06.634Z,102877.25
2022-12-18T00:54:20.376Z,102867.63
2022-12-18T00:54:33.292Z,102870.25
2022-12-18T00:54:45.862Z,102868.53
2022-12-18T00:55:03.068Z,102877.25
2022-12-18T00:55:19.328Z,102871.13
2022-12-18T00:55:33.117Z,102873.75
2022-12-18T00:55:46.711Z,102865.88
2022-12-18T00:55:59.355Z,102872.00
2022-12-18T00:56:11.950Z,102871.13
2022-12-18T00:56:25.341Z,102872.00
2022-12-18T00:56:48.038Z,102870.22
2022-12-18T00:57:01.251Z,102871.13
2022-12-18T00:57:13.865Z,102867.59
2022-12-18T00:57:26.449Z,102864.97
2022-12-18T00:57:39.080Z,102878.09
2022-12-18T00:57:54.217Z,102874.56
2022-12-18T00:58:06.790Z,102873.72
2022-12-18T00:58:19.917Z,102868.47
2022-12-18T00:58:32.535Z,102876.34
2022-12-18T00:58:45.148Z,102873.72
2022-12-18T00:58:57.995Z,102873.72
2022-12-18T00:59:10.594Z,102872.84
2022-12-18T00:59:24.280Z,102873.72
2022-12-18T00:59:36.861Z,102874.59
2022-12-18T00:59:49.427Z,102868.47
2022-12-18T01:00:02.171Z,102874.59
2022-12-18T01:00:18.191Z,102877.19
2022-12-18T01:00:30.750Z,102873.72
2022-12-18T01:00:43.601Z,102874.56
2022-12-18T01:00:56.242Z,102874.59
2022-12-18T01:01:09.478Z,102873.72
2022-12-18T01:01:23.383Z,102871.97
2022-12-18T01:01:36.159Z,102875.47
2022-12-18T01:01:49.041Z,102871.97
2022-12-18T01:02:01.846Z,102875.47
2022-12-18T01:02:14.629Z,102871.13
2022-12-18T01:02:27.505Z,102872.84
2022-12-18T01:02:40.942Z,102872.84
2022-12-18T01:02:54.761Z,102875.50
2022-12-18T01:03:07.780Z,102872.88
2022-12-18T01:03:20.722Z,102876.38
2022-12-18T01:03:33.348Z,102874.63
2022-12-18T01:03:47.567Z,102873.75
2022-12-18T01:04:01.196Z,102877.25
2022-12-18T01:04:15.153Z,102870.22
2022-12-18T01:04:27.905Z,102871.97
2022-12-18T01:04:40.567Z,102870.22
2022-12-18T01:04:53.208Z,102874.59
2022-12-18T01:05:06.701Z,102868.47
2022-12-18T01:05:19.457Z,102876.31
2022-12-18T01:05:32.802Z,102882.41
2022-12-18T01:05:45.394Z,102875.44
2022-12-18T01:05:59.191Z,102885.94
2022-12-18T01:06:13.987Z,102885.94
2022-12-18T01:06:26.740Z,102872.81
2022-12-18T01:06:39.327Z,102884.16
2022-12-18T01:06:52.860Z,102875.44
2022-12-18T01:07:05.442Z,102886.78
2022-12-18T01:07:18.998Z,102891.19
2022-12-18T01:07:31.784Z,102880.69
2022-12-18T01:07:44.338Z,102883.31
2022-12-18T01:07:57.703Z,102886.81
2022-12-18T01:08:10.623Z,102886.81
2022-12-18T01:08:23.314Z,102885.03
2022-12-18T01:08:36.595Z,102883.31
2022-12-18T01:08:49.204Z,102889.44
2022-12-18T01:09:03.172Z,102890.31
2022-12-18T01:09:16.102Z,102884.19
2022-12-18T01:09:28.854Z,102890.31
2022-12-18T01:09:41.571Z,102888.56
2022-12-18T01:09:54.155Z,102887.66
2022-12-18T01:10:08.612Z,102885.94
2022-12-18T01:10:21.542Z,102894.69
2022-12-18T01:10:35.219Z,102891.19
2022-12-18T01:10:47.773Z,102892.06
2022-12-18T01:11:00.398Z,102885.94
2022-12-18T01:11:15.615Z,102885.06
2022-12-18T01:11:28.204Z,102887.66
2022-12-18T01:11:41.105Z,102887.66
2022-12-18T01:11:53.729Z,102890.31
2022-12-18T01:12:08.456Z,102887.69
2022-12-18T01:12:21.044Z,102879.81
2022-12-18T01:12:34.132Z,102885.06
2022-12-18T01:12:46.728Z,102875.44
2022-12-18T01:12:59.704Z,102877.22
2022-12-18T01:13:12.298Z,102883.31
2022-12-18T01:13:24.946Z,102885.94
2022-12-18T01:13:37.859Z,102887.69
2022-12-18T01:13:51.819Z,102890.31
2022-12-18T01:14:05.091Z,102888.59
2022-12-18T01:14:17.695Z,102893.84
2022-12-18T01:14:30.298Z,102891.22
2022-12-18T01:14:42.873Z,102892.09
2022-12-18T01:14:55.484Z,102892.97
2022-12-18T01:15:10.280Z,102891.22
2022-12-18T01:15:24.423Z,102883.34
2022-12-18T01:15:37.134Z,102884.25
2022-12-18T01:15:50.257Z,102889.47
2022-12-18T01:16:02.917Z,102888.56
2022-12-18T01:16:17.915Z,102893.81
2022-12-18T01:16:32.167Z,102896.44
2022-12-18T01:16:45.103Z,102891.19
2022-12-18T01:16:57.776Z,102892.09
2022-12-18T01:17:10.381Z,102882.47
2022-12-18T01:17:23.074Z,102888.59
2022-12-18T01:17:35.776Z,102897.34
2022-12-18T01:17:48.342Z,102890.34
2022-12-18T01:18:01.906Z,102893.84
2022-12-18T01:18:14.475Z,102899.97
2022-12-18T01:18:27.321Z,102890.38
2022-12-18T01:18:40.472Z,102891.25
2022-12-18T01:18:54.729Z,102887.75
2022-12-18T01:19:07.514Z,102893.88
2022-12-18T01:19:20.081Z,102891.22
2022-12-18T01:19:32.984Z,102885.13
2022-12-18T01:19:45.566Z,102882.50
2022-12-18T01:19:59.123Z,102885.97
2022-12-18T01:20:13.128Z,102891.22
2022-12-18T01:20:25.785Z,102885.97
2022-12-18T01:20:39.288Z,102881.59
2022-12-18T01:20:52.141Z,102884.25
2022-12-18T01:21:07.890Z,102886.84
2022-12-18T01:21:21.543Z,102882.44
2022-12-18T01:21:34.175Z,102876.34
2022-12-18T01:21:46.776Z,102878.06
2022-12-18T01:21:59.569Z,102877.22
2022-12-18T01:22:12.844Z,102879.81
2022-12-18T01:22:25.799Z,102883.31
2022-12-18T01:22:38.631Z,102884.19
2022-12-18T01:22:51.214Z,102880.69
2022-12-18T01:23:03.776Z,102883.31
2022-12-18T01:23:16.422Z,102889.41
2022-12-18T01:23:30.108Z,102885.91
2022-12-18T01:23:43.090Z,102880.66
2022-12-18T01:23:57.274Z,102887.66
2022-12-18T01:24:13.070Z,102890.25
2022-12-18T01:24:25.938Z,102886.75
2022-12-18T01:24:38.580Z,102891.13
2022-12-18T01:24:51.158Z,102893.75
2022-12-18T01:25:06.386Z,102892.03
2022-12-18T01:25:19.286Z,102890.25
2022-12-18T01:25:31.842Z,102892.00
2022-12-18T01:25:44.404Z,102882.38
2022-12-18T01:25:56.968Z,102894.66
2022-12-18T01:26:11.129Z,102884.16
2022-12-18T01:26:25.716Z,102887.66
2022-12-18T01:26:38.365Z,102893.78
2022-12-18T01:26:50.947Z,102885.94
2022-12-18T01:27:03.680Z,102888.53
2022-12-18T01:27:16.404Z,102888.56
2022-12-18T01:27:29.032Z,102887.66
2022-12-18T01:27:41.644Z,102889.41
2022-12-18T01:27:55.304Z,102888.53
2022-12-18T01:28:07.912Z,102882.41
2022-12-18T01:28:20.510Z,102892.91
2022-12-18T01:28:33.137Z,102885.91
2022-12-18T01:28:45.777Z,102885.03
2022-12-18T01:28:59.645Z,102886.78
2022-12-18T01:29:12.238Z,102892.03
2022-12-18T01:29:24.857Z,102894.66
2022-12-18T01:29:37.667Z,102897.25
2022-12-18T01:29:50.621Z,102892.88
2022-12-18T01:30:04.176Z,102903.38
2022-12-18T01:30:16.909Z,102901.63
2022-12-18T01:30:30.819Z,102895.53
2022-12-18T01:30:44.404Z,102903.41
2022-12-18T01:30:56.981Z,102899.03
2022-12-18T01:31:14.336Z,102905.13
2022-12-18T01:31:28.396Z,102899.91
2022-12-18T01:31:41.091Z,102899.03
2022-12-18T01:31:56.710Z,102906.03
2022-12-18T01:32:09.757Z,102909.56
2022-12-18T01:32:24.100Z,102904.31
2022-12-18T01:32:36.717Z,102906.03
2022-12-18T01:32:49.320Z,102906.91
2022-12-18T01:33:02.084Z,102910.44
2022-12-18T01:33:14.801Z,102901.72
2022-12-18T01:33:27.402Z,102907.81
2022-12-18T01:33:40.229Z,102903.44
2022-12-18T01:33:54.926Z,102903.44
2022-12-18T01:34:07.864Z,102897.34
2022-12-18T01:34:20.452Z,102903.44
2022-12-18T01:34:33.100Z,102895.56
2022-12-18T01:34:45.943Z,102900.81
2022-12-18T01:34:58.638Z,102899.06
2022-12-18T01:35:11.224Z,102901.66
2022-12-18T01:35:24.788Z,102901.66
2022-12-18T01:35:41.953Z,102899.94
2022-12-18T01:35:54.600Z,102903.41
2022-12-18T01:36:07.754Z,102903.41
2022-12-18T01:36:22.747Z,102897.28
2022-12-18T01:36:37.648Z,102898.16
2022-12-18T01:36:53.099Z,102902.50
2022-12-18T01:37:06.800Z,102905.13
2022-12-18T01:37:19.378Z,102899.88
2022-12-18T01:37:32.105Z,102901.66
2022-12-18T01:37:44.701Z,102903.38
2022-12-18T01:37:57.464Z,102900.75
2022-12-18T01:38:10.135Z,102901.63
2022-12-18T01:38:24.178Z,102907.75
2022-12-18T01:38:36.752Z,102895.50
2022-12-18T01:38:50.064Z,102902.50
2022-12-18T01:39:08.839Z,102903.38
2022-12-18T01:39:21.409Z,102903.38
2022-12-18T01:39:34.578Z,102898.13
2022-12-18T01:39:47.246Z,102903.38
2022-12-18T01:40:00.932Z,102906.88
2022-12-18T01:40:13.712Z,102906.88
2022-12-18T01:40:26.286Z,102910.38
2022-12-18T01:40:38.902Z,102906.88
2022-12-18T01:40:58.300Z,102907.75
2022-12-18T01:41:11.096Z,102904.25
2022-12-18T01:41:48.754Z,102903.41
2022-12-18T01:42:03.174Z,102901.66
2022-12-18T01:42:17.377Z,102903.41
2022-12-18T01:42:30.080Z,102902.53
2022-12-18T01:42:42.974Z,102906.88
2022-12-18T01:42:55.584Z,102906.88
2022-12-18T01:43:10.412Z,102914.75
2022-12-18T01:43:23.976Z,102905.97
2022-12-18T01:43:47.757Z,102912.13
2022-12-18T01:44:00.341Z,102913.84
2022-12-18T01:44:45.932Z,102918.22
2022-12-18T01:45:03.557Z,102911.22
2022-12-18T01:45:25.153Z,102908.66
2022-12-18T01:45:39.351Z,102910.41
2022-12-18T01:45:52.011Z,102908.66
2022-12-18T01:46:04.666Z,102908.63
2022-12-18T01:46:19.875Z,102904.25
2022-12-18T01:46:33.507Z,102904.25
2022-12-18T01:46:46.090Z,102903.38
2022-12-18T01:46:58.750Z,102899.88
2022-12-18T01:47:15.285Z,102900.75
2022-12-18T01:47:33.043Z,102902.50
2022-12-18T01:47:49.579Z,102905.97
2022-12-18T01:48:04.505Z,102898.13
2022-12-18T01:48:17.108Z,102903.38
2022-12-18T01:48:30.704Z,102905.13
2022-12-18T01:48:44.819Z,102905.13
2022-12-18T01:49:00.058Z,102911.22
2022-12-18T01:49:12.634Z,102916.47
2022-12-18T01:49:25.320Z,102913.84
2022-12-18T01:49:37.916Z,102917.34
2022-12-18T01:49:50.949Z,102915.59
2022-12-18T01:50:07.253Z,102926.13
2022-12-18T01:50:24.231Z,102926.13
2022-12-18T01:50:40.304Z,102922.59
2022-12-18T01:50:52.972Z,102922.59
2022-12-18T01:51:07.017Z,102924.38
2022-12-18T01:51:19.901Z,102925.25
2022-12-18T01:51:34.370Z,102925.25
2022-12-18T01:51:47.311Z,102926.13
2022-12-18T01:51:59.885Z,102922.66
2022-12-18T01:52:12.716Z,102931.41
2022-12-18T01:52:27.129Z,102917.41
2022-12-18T01:52:44.925Z,102922.66
2022-12-18T01:53:01.084Z,102917.41
2022-12-18T01:53:17.904Z,102911.28
2022-12-18T01:53:30.486Z,102909.53
2022-12-18T01:53:45.326Z,102911.28
2022-12-18T01:53:59.708Z,102911.28
2022-12-18T01:54:12.288Z,102914.78
2022-12-18T01:54:24.893Z,102914.78
2022-12-18T01:54:37.643Z,102912.13
2022-12-18T01:54:51.688Z,102918.25
2022-12-18T01:55:08.348Z,102915.66
2022-12-18T01:55:24.686Z,102919.13
2022-12-18T01:55:42.059Z,102921.75
2022-12-18T01:55:57.000Z,102921.75
2022-12-18T01:56:13.391Z,102920.00
2022-12-18T01:56:27.060Z,102920.00
2022-12-18T01:56:39.668Z,102928.75
2022-12-18T01:56:52.268Z,102924.38
2022-12-18T01:57:05.024Z,102925.25
2022-12-18T01:57:17.980Z,102931.38
2022-12-18T01:57:30.921Z,102924.38
2022-12-18T01:57:43.899Z,102928.75
2022-12-18T01:57:58.763Z,102928.75
2022-12-18T01:58:12.598Z,102926.13
2022-12-18T01:58:31.338Z,102924.38
2022-12-18T01:58:51.564Z,102922.66
2022-12-18T01:59:09.633Z,102920.06
2022-12-18T01:59:22.517Z,102920.91
2022-12-18T01:59:36.799Z,102921.78
2022-12-18T01:59:53.664Z,102925.28
2022-12-18T02:00:10.931Z,102927.00
2022-12-18T02:00:24.950Z,102929.63
2022-12-18T02:00:39.092Z,102927.91
2022-12-18T02:00:52.003Z,102931.38
2022-12-18T02:01:06.551Z,102925.25
2022-12-18T02:01:19.446Z,102924.38
2022-12-18T02:01:33.832Z,102927.00
2022-12-18T02:01:46.806Z,102929.63
2022-12-18T02:02:02.167Z,102933.09
2022-12-18T02:02:16.785Z,102932.25
2022-12-18T02:02:31.478Z,102931.38
2022-12-18T02:02:45.313Z,102931.38
2022-12-18T02:02:58.189Z,102929.66
2022-12-18T02:03:12.158Z,102924.38
2022-12-18T02:03:24.970Z,102927.00
2022-12-18T02:03:38.187Z,102919.13
2022-12-18T02:03:51.377Z,102922.66
2022-12-18T02:04:21.783Z,102931.38
2022-12-18T02:04:34.523Z,102927.91
2022-12-18T02:04:49.571Z,102940.13
2022-12-18T02:05:05.051Z,102932.25
2022-12-18T02:05:20.267Z,102937.47
2022-12-18T02:05:43.857Z,102935.72
2022-12-18T02:06:03.077Z,102937.47
2022-12-18T02:06:20.735Z,102941.84
2022-12-18T02:06:39.998Z,102939.22
2022-12-18T02:06:59.245Z,102933.97
2022-12-18T02:07:18.500Z,102937.47
2022-12-18T02:07:41.792Z,102939.25
2022-12-18T02:08:04.801Z,102935.75
2022-12-18T02:08:23.504Z,102934.88
2022-12-18T02:08:44.360Z,102934.88
2022-12-18T02:09:08.615Z,102934.88
2022-12-18T02:09:28.118Z,102934.00
2022-12-18T02:09:47.984Z,102940.13
2022-12-18T02:10:08.490Z,102936.63
2022-12-18T02:10:28.855Z,102942.75
2022-12-18T02:10:49.364Z,102936.66
2022-12-18T02:11:07.819Z,102934.91
2022-12-18T02:11:32.223Z,102934.00
2022-12-18T02:11:54.104Z,102938.41
2022-12-18T02:12:20.412Z,102937.50
2022-12-18T02:12:41.146Z,102937.50
2022-12-18T02:13:01.648Z,102939.22
2022-12-18T02:13:22.154Z,102934.00
2022-12-18T02:13:45.862Z,102936.63
2022-12-18T02:14:09.704Z,102941.00
2022-12-18T02:14:30.061Z,102937.50
2022-12-18T02:14:49.299Z,102941.88
2022-12-18T02:15:09.573Z,102940.13
2022-12-18T02:15:31.640Z,102936.66
2022-12-18T02:15:52.550Z,102940.16
2022-12-18T02:16:15.402Z,102939.28
2022-12-18T02:16:33.503Z,102936.66
2022-12-18T02:16:54.451Z,102947.16
2022-12-18T02:17:12.712Z,102948.00
2022-12-18T02:17:33.378Z,102950.63
2022-12-18T02:17:51.460Z,102944.53
2022-12-18T02:18:09.483Z,102939.28
2022-12-18T02:18:27.206Z,102948.00
2022-12-18T02:18:44.594Z,102948.91
2022-12-18T02:19:02.720Z,102947.16
2022-12-18T02:19:30.177Z,102944.53
2022-12-18T02:19:56.101Z,102940.16
2022-12-18T02:20:15.320Z,102948.91
2022-12-18T02:20:34.397Z,102945.41
2022-12-18T02:20:50.684Z,102952.41
2022-12-18T02:21:14.607Z,102939.28
2022-12-18T02:21:36.839Z,102940.13
2022-12-18T02:21:58.506Z,102944.50
2022-12-18T02:22:26.033Z,102943.63
2022-12-18T02:22:48.107Z,102944.50
2022-12-18T02:23:12.608Z,102947.09
2022-12-18T02:23:43.265Z,102944.47
2022-12-18T02:24:05.317Z,102940.09
2022-12-18T02:24:30.580Z,102940.97
2022-12-18T02:24:51.364Z,102945.38
2022-12-18T02:25:18.924Z,102938.38
2022-12-18T02:25:44.859Z,102945.38
2022-12-18T02:26:08.648Z,102941.03
2022-12-18T02:26:27.065Z,102943.63
2022-12-18T02:26:45.864Z,102945.41
2022-12-18T02:27:01.863Z,102945.41
2022-12-18T02:27:14.651Z,102949.78
2022-12-18T02:27:29.080Z,102952.41
2022-12-18T02:27:45.582Z,102952.41
2022-12-18T02:28:01.399Z,102953.25
2022-12-18T02:28:18.084Z,102950.66
2022-12-18T02:28:36.897Z,102950.66
2022-12-18T02:28:54.957Z,102950.66
2022-12-18T02:29:13.116Z,102947.16
2022-12-18T02:29:29.055Z,102952.44
2022-12-18T02:29:45.220Z,102954.16
2022-12-18T02:30:00.580Z,102955.06
2022-12-18T02:30:15.420Z,102956.78
2022-12-18T02:30:31.135Z,102948.94
2022-12-18T02:30:46.741Z,102948.94
2022-12-18T02:31:02.798Z,102958.56
2022-12-18T02:31:19.193Z,102957.66
2022-12-18T02:31:36.970Z,102954.19
2022-12-18T02:31:53.736Z,102948.94
2022-12-18T02:32:13.133Z,102956.81
2022-12-18T02:32:33.886Z,102964.69
2022-12-18T02:32:49.932Z,102962.06
2022-12-18T02:33:06.106Z,102961.22
2022-12-18T02:33:22.061Z,102962.09
2022-12-18T02:33:37.441Z,102955.06
2022-12-18T02:33:51.624Z,102958.59
2022-12-18T02:34:08.893Z,102957.72
2022-12-18T02:34:27.150Z,102955.97
2022-12-18T02:34:41.980Z,102955.97
2022-12-18T02:34:57.532Z,102961.22
2022-12-18T02:35:16.214Z,102955.09
2022-12-18T02:35:31.772Z,102956.88
2022-12-18T02:35:47.572Z,102952.47
2022-12-18T02:36:01.925Z,102956.88
2022-12-18T02:36:16.697Z,102960.34
2022-12-18T02:36:31.112Z,102959.47
2022-12-18T02:36:46.845Z,102959.47
2022-12-18T02:37:02.939Z,102962.94
2022-12-18T02:37:20.448Z,102952.44
2022-12-18T02:37:35.198Z,102950.72
2022-12-18T02:37:48.632Z,102961.19
2022-12-18T02:38:05.774Z,102951.56
2022-12-18T02:38:18.864Z,102960.31
2022-12-18T02:38:32.770Z,102965.56
2022-12-18T02:38:46.794Z,102958.59
2022-12-18T02:39:01.885Z,102962.94
2022-12-18T02:39:16.754Z,102959.47
2022-12-18T02:39:32.004Z,102958.59
2022-12-18T02:39:47.789Z,102962.09
2022-12-18T02:40:01.379Z,102955.97
2022-12-18T02:40:15.922Z,102962.09
2022-12-18T02:40:29.518Z,102956.88
2022-12-18T02:40:44.384Z,102955.97
2022-12-18T02:40:58.642Z,102960.34
2022-12-18T02:41:14.185Z,102955.97
2022-12-18T02:41:27.430Z,102961.19
2022-12-18T02:41:40.870Z,102962.06
2022-12-18T02:41:53.847Z,102962.06
2022-12-18T02:42:09.185Z,102966.44
2022-12-18T02:42:22.894Z,102961.19
2022-12-18T02:42:35.853Z,102966.44
2022-12-18T02:42:48.461Z,102966.44
2022-12-18T02:43:04.444Z,102962.06
2022-12-18T02:43:17.138Z,102956.81
2022-12-18T02:43:31.067Z,102961.22
2022-12-18T02:43:52.282Z,102959.47
2022-12-18T02:44:10.969Z,102963.81
2022-12-18T02:44:23.568Z,102959.50
2022-12-18T02:44:36.499Z,102963.84
2022-12-18T02:44:51.361Z,102959.50
2022-12-18T02:45:04.613Z,102964.72
2022-12-18T02:45:18.448Z,102963.84
2022-12-18T02:45:31.169Z,102963.84
2022-12-18T02:45:48.330Z,102971.75
2022-12-18T02:46:22.456Z,102966.50
2022-12-18T02:46:38.809Z,102962.97
2022-12-18T02:46:54.300Z,102969.13
2022-12-18T02:47:07.223Z,102961.25
2022-12-18T02:47:22.848Z,102971.75
2022-12-18T02:47:38.399Z,102962.97
2022-12-18T02:47:51.670Z,102966.47
2022-12-18T02:48:04.646Z,102969.09
2022-12-18T02:48:18.965Z,102969.09
2022-12-18T02:48:34.682Z,102964.75
2022-12-18T02:48:47.894Z,102959.50
2022-12-18T02:49:10.112Z,102963.88